createdAt,value
2019-02-09T00:01:47.050Z,98442.59
2019-02-09T00:06:53.185Z,98424.42
2019-02-09T00:11:58.758Z,98405.11
2019-02-09T00:17:05.539Z,98380.56
2019-02-09T00:22:11.298Z,98380.56
2019-02-09T00:27:16.897Z,98375.09
2019-02-09T00:32:22.473Z,98375.09
2019-02-09T00:37:29.118Z,98367.96
2019-02-09T00:42:35.932Z,98369.15
2019-02-09T00:47:41.509Z,98352.64
2019-02-09T00:52:47.012Z,98378.50
2019-02-09T00:57:53.195Z,98383.59
2019-02-09T01:02:59.161Z,98374.61
2019-02-09T01:08:05.560Z,98378.98
2019-02-09T01:13:11.079Z,98380.31
2019-02-09T01:18:16.661Z,98385.56
2019-02-09T01:23:23.787Z,98391.44
2019-02-09T01:28:30.596Z,98391.44
2019-02-09T01:33:38.493Z,98365.45
2019-02-09T01:38:44.154Z,98372.53
2019-02-09T01:43:50.139Z,98366.74
2019-02-09T01:48:56.222Z,98360.14
2019-02-09T01:54:01.731Z,98341.66
2019-02-09T01:59:07.377Z,98341.66
2019-02-09T02:04:12.950Z,98336.92
2019-02-09T02:09:18.786Z,98340.68
2019-02-09T02:14:24.323Z,98309.70
2019-02-09T02:19:30.030Z,98303.83
2019-02-09T02:24:35.585Z,98282.72
2019-02-09T02:29:41.679Z,98266.34
2019-02-09T02:34:47.190Z,98254.56
2019-02-09T02:39:53.122Z,98244.36
2019-02-09T02:45:00.379Z,98229.44
2019-02-09T02:50:08.165Z,98211.25
2019-02-09T02:55:21.388Z,98219.37
2019-02-09T03:00:32.124Z,98211.60
2019-02-09T03:05:36.469Z,98202.60
2019-02-09T03:10:44.131Z,98181.77
2019-02-09T03:15:50.140Z,98192.09
2019-02-09T03:20:58.289Z,98188.34
2019-02-09T03:26:03.955Z,98188.34
2019-02-09T03:31:09.521Z,98198.59
2019-02-09T03:36:16.024Z,98214.77
2019-02-09T03:41:22.155Z,98214.40
2019-02-09T03:46:27.798Z,98231.72
2019-02-09T03:51:33.435Z,98215.75
2019-02-09T03:56:39.027Z,98215.05
2019-02-09T04:01:44.596Z,98216.84
2019-02-09T04:06:51.330Z,98217.80
2019-02-09T04:11:58.311Z,98211.88
2019-02-09T04:17:04.986Z,98181.88
2019-02-09T04:22:10.523Z,98182.85
2019-02-09T04:27:16.061Z,98182.85
2019-02-09T04:32:21.616Z,98166.86
2019-02-09T04:37:29.999Z,98155.33
2019-02-09T04:42:37.610Z,98138.20
2019-02-09T04:47:43.820Z,98142.22
2019-02-09T04:52:49.647Z,98132.75
2019-02-09T04:57:55.254Z,98098.66
2019-02-09T05:03:01.380Z,98094.63
2019-02-09T05:08:07.089Z,98094.63
2019-02-09T05:13:14.326Z,98078.52
2019-02-09T05:18:20.154Z,98086.72
2019-02-09T05:23:25.758Z,98086.72
2019-02-09T05:28:31.727Z,98075.70
2019-02-09T05:33:37.594Z,98069.91
2019-02-09T05:38:43.129Z,98069.91
2019-02-09T05:43:49.620Z,98078.58
2019-02-09T05:48:55.598Z,98078.58
2019-02-09T05:54:04.570Z,98082.56
2019-02-09T05:59:12.254Z,98081.92
2019-02-09T06:04:17.910Z,98079.02
2019-02-09T06:09:23.439Z,98086.52
2019-02-09T06:14:29.028Z,98094.88
2019-02-09T06:19:34.626Z,98087.08
2019-02-09T06:24:40.145Z,98091.20
2019-02-09T06:29:45.707Z,98081.52
2019-02-09T06:34:51.565Z,98069.13
2019-02-09T06:39:57.108Z,98078.58
2019-02-09T06:45:03.239Z,98081.91
2019-02-09T06:50:11.039Z,98088.87
2019-02-09T06:55:17.220Z,98088.87
2019-02-09T07:00:22.966Z,98070.64
2019-02-09T07:05:28.976Z,98082.39
2019-02-09T07:10:44.661Z,98075.96
2019-02-09T07:15:50.737Z,98077.22
2019-02-09T07:20:56.329Z,98089.42
2019-02-09T07:26:02.501Z,98104.23
2019-02-09T07:31:08.455Z,98105.35
2019-02-09T07:36:14.523Z,98116.22
2019-02-09T07:41:20.219Z,98117.61
2019-02-09T07:46:26.626Z,98113.36
2019-02-09T07:51:35.003Z,98112.53
2019-02-09T07:56:44.304Z,98121.22
2019-02-09T08:01:50.441Z,98113.11
2019-02-09T08:06:59.350Z,98078.60
2019-02-09T08:12:08.423Z,98093.01
2019-02-09T08:17:22.105Z,98110.97
2019-02-09T08:22:29.319Z,98104.86
2019-02-09T08:27:37.337Z,98124.77
2019-02-09T08:32:45.319Z,98145.57
2019-02-09T08:37:51.225Z,98153.45
2019-02-09T08:42:58.514Z,98163.11
2019-02-09T08:48:05.554Z,98173.98
2019-02-09T08:53:11.504Z,98185.64
2019-02-09T08:58:20.107Z,98195.73
2019-02-09T09:03:33.930Z,98181.88
2019-02-09T09:08:34.884Z,98174.05
2019-02-09T09:13:40.705Z,98177.81
2019-02-09T09:18:46.622Z,98177.42
2019-02-09T09:23:52.410Z,98162.06
2019-02-09T09:28:58.277Z,98166.09
2019-02-09T09:34:05.527Z,98172.77
2019-02-09T09:39:12.392Z,98168.12
2019-02-09T09:44:18.279Z,98180.61
2019-02-09T09:49:29.583Z,98172.35
2019-02-09T09:54:35.232Z,98176.20
2019-02-09T09:59:45.476Z,98196.36
2019-02-09T10:04:53.665Z,98206.73
2019-02-09T10:10:01.432Z,98223.78
2019-02-09T10:15:09.874Z,98224.20
2019-02-09T10:20:20.728Z,98222.20
2019-02-09T10:25:30.338Z,98243.33
2019-02-09T10:30:36.181Z,98254.25
2019-02-09T10:35:41.986Z,98258.45
2019-02-09T10:40:49.326Z,98265.47
2019-02-09T10:45:56.133Z,98275.23
2019-02-09T10:51:08.305Z,98286.24
2019-02-09T10:56:14.141Z,98284.80
2019-02-09T11:01:25.130Z,98271.95
2019-02-09T11:06:35.361Z,98271.19
2019-02-09T11:11:46.036Z,98285.44
2019-02-09T11:16:52.902Z,98257.08
2019-02-09T11:21:58.734Z,98279.28
2019-02-09T11:27:10.642Z,98292.95
2019-02-09T11:32:20.331Z,98300.72
2019-02-09T11:37:31.277Z,98287.67
2019-02-09T11:42:41.087Z,98298.44
2019-02-09T11:47:48.406Z,98283.68
2019-02-09T11:52:54.679Z,98287.13
2019-02-09T11:58:06.063Z,98286.22
2019-02-09T12:03:15.844Z,98284.75
2019-02-09T12:08:22.850Z,98285.37
2019-02-09T12:13:32.737Z,98299.41
2019-02-09T12:18:39.538Z,98318.41
2019-02-09T12:23:45.361Z,98312.61
2019-02-09T12:28:52.930Z,98296.23
2019-02-09T12:34:01.464Z,98311.72
2019-02-09T12:39:11.593Z,98312.12
2019-02-09T12:44:17.426Z,98296.49
2019-02-09T12:49:24.723Z,98274.08
2019-02-09T12:54:30.497Z,98291.95
2019-02-09T12:59:36.413Z,98287.19
2019-02-09T13:04:46.539Z,98298.83
2019-02-09T13:09:53.533Z,98300.63
2019-02-09T13:15:06.482Z,98303.14
2019-02-09T13:20:11.179Z,98301.08
2019-02-09T13:25:17.383Z,98301.12
2019-02-09T13:30:26.087Z,98300.77
2019-02-09T13:35:36.301Z,98311.58
2019-02-09T13:40:42.589Z,98299.82
2019-02-09T13:45:55.453Z,98330.53
2019-02-09T13:51:06.722Z,98323.57
2019-02-09T13:56:16.228Z,98319.94
2019-02-09T14:01:25.798Z,98327.64
2019-02-09T14:06:33.321Z,98342.55
2019-02-09T14:11:42.970Z,98344.97
2019-02-09T14:16:49.750Z,98341.65
2019-02-09T14:21:59.308Z,98337.34
2019-02-09T14:27:22.221Z,98322.98
2019-02-09T14:32:34.519Z,98335.92
2019-02-09T14:37:43.031Z,98344.27
2019-02-09T14:42:53.772Z,98348.84
2019-02-09T14:47:59.534Z,98356.41
2019-02-09T14:53:08.211Z,98370.97
2019-02-09T14:58:14.452Z,98368.28
2019-02-09T15:03:26.939Z,98378.02
2019-02-09T15:08:32.488Z,98369.54
2019-02-09T15:13:39.952Z,98373.86
2019-02-09T15:18:48.312Z,98365.59
2019-02-09T15:23:54.507Z,98370.39
2019-02-09T15:29:02.867Z,98353.44
2019-02-09T15:34:10.373Z,98363.91
2019-02-09T15:39:17.734Z,98362.13
2019-02-09T15:54:38.531Z,98393.67
2019-02-09T15:59:50.038Z,98410.14
2019-02-09T16:05:00.393Z,98405.00
2019-02-09T16:10:11.004Z,98400.67
2019-02-09T16:15:21.354Z,98401.19
2019-02-09T16:20:28.081Z,98412.23
2019-02-09T16:25:41.976Z,98409.50
2019-02-09T16:30:50.235Z,98413.34
2019-02-09T16:35:56.367Z,98411.30
2019-02-09T16:41:04.607Z,98418.41
2019-02-09T16:46:16.423Z,98417.33
2019-02-09T16:51:22.687Z,98431.91
2019-02-09T16:56:28.867Z,98449.09
2019-02-09T17:01:35.709Z,98447.75
2019-02-09T17:06:41.740Z,98437.27
2019-02-09T17:11:50.581Z,98436.88
2019-02-09T17:16:57.717Z,98443.66
2019-02-09T17:22:11.921Z,98459.28
2019-02-09T17:27:20.492Z,98452.63
2019-02-09T17:32:26.781Z,98442.86
2019-02-09T17:37:38.471Z,98454.55
2019-02-09T17:42:44.430Z,98457.95
2019-02-09T17:47:53.262Z,98468.20
2019-02-09T17:53:00.325Z,98463.47
2019-02-09T17:58:14.802Z,98480.72
2019-02-09T18:03:20.737Z,98482.91
2019-02-09T18:08:27.167Z,98463.73
2019-02-09T18:13:33.243Z,98457.45
2019-02-09T18:18:40.866Z,98457.16
2019-02-09T18:23:50.433Z,98465.66
2019-02-09T18:28:58.797Z,98482.39
2019-02-09T18:34:09.122Z,98471.66
2019-02-09T18:39:16.386Z,98466.53
2019-02-09T18:44:26.497Z,98472.53
2019-02-09T18:49:32.238Z,98477.42
2019-02-09T18:54:39.641Z,98469.23
2019-02-09T18:59:52.783Z,98479.69
2019-02-09T19:05:04.830Z,98459.41
2019-02-09T19:10:19.234Z,98462.80
2019-02-09T19:15:30.408Z,98476.39
2019-02-09T19:20:42.699Z,98476.39
2019-02-09T19:25:51.078Z,98482.93
2019-02-09T19:31:00.634Z,98488.21
2019-02-09T19:36:15.831Z,98492.09
2019-02-09T19:41:22.131Z,98491.13
2019-02-09T19:46:30.685Z,98498.44
2019-02-09T19:51:36.840Z,98493.70
2019-02-09T19:56:44.516Z,98515.92
2019-02-09T20:01:50.434Z,98511.44
2019-02-09T20:07:07.471Z,98511.54
2019-02-09T20:12:15.935Z,98506.48
2019-02-09T20:17:26.415Z,98517.64
2019-02-09T20:22:35.762Z,98516.33
2019-02-09T20:27:46.950Z,98533.76
2019-02-09T20:32:56.546Z,98533.76
2019-02-09T20:38:13.120Z,98522.30
2019-02-09T20:43:23.888Z,98519.98
2019-02-09T20:48:40.484Z,98531.93
2019-02-09T20:53:46.949Z,98532.52
2019-02-09T20:58:59.916Z,98535.45
2019-02-09T21:04:13.013Z,98537.17
2019-02-09T21:09:25.984Z,98552.27
2019-02-09T21:14:34.443Z,98556.86
2019-02-09T21:19:41.620Z,98549.23
2019-02-09T21:24:50.665Z,98559.18
2019-02-09T21:29:57.097Z,98554.11
2019-02-09T21:35:06.245Z,98568.48
2019-02-09T21:40:21.007Z,98571.77
2019-02-09T21:45:28.055Z,98580.54
2019-02-09T21:50:35.998Z,98585.63
2019-02-09T21:55:41.991Z,98586.23
2019-02-09T22:00:48.135Z,98578.93
2019-02-09T22:06:07.164Z,98580.78
2019-02-09T22:11:13.022Z,98584.54
2019-02-09T22:16:27.187Z,98577.97
2019-02-09T22:21:36.594Z,98575.41
2019-02-09T22:26:44.085Z,98571.30
2019-02-09T22:31:53.471Z,98583.67
2019-02-09T22:37:01.579Z,98596.22
2019-02-09T22:42:14.899Z,98599.98
2019-02-09T22:47:20.921Z,98599.97
2019-02-09T22:52:30.286Z,98601.42
2019-02-09T22:57:36.082Z,98604.34
2019-02-09T23:02:42.109Z,98600.48
2019-02-09T23:07:51.201Z,98593.55
2019-02-09T23:12:59.766Z,98601.79
2019-02-09T23:18:06.717Z,98598.42
2019-02-09T23:23:14.677Z,98598.42
2019-02-09T23:28:21.727Z,98615.05
2019-02-09T23:33:32.649Z,98621.95
2019-02-09T23:38:38.702Z,98618.08
2019-02-09T23:43:44.383Z,98617.59
2019-02-09T23:54:49.391Z,98616.61
2019-02-09T23:59:55.124Z,98614.31
